createdAt,value
2023-05-24T00:00:31.703Z,80.53
2023-05-24T00:03:00.321Z,80.62
2023-05-24T00:05:31.082Z,80.83
2023-05-24T00:07:59.160Z,81.09
2023-05-24T00:10:27.002Z,81.35
2023-05-24T00:12:54.865Z,81.01
2023-05-24T00:15:22.546Z,81.22
2023-05-24T00:17:51.966Z,80.90
2023-05-24T00:20:20.704Z,81.11
2023-05-24T00:22:49.466Z,81.17
2023-05-24T00:25:17.188Z,81.09
2023-05-24T00:27:45.419Z,80.96
2023-05-24T00:30:13.770Z,80.96
2023-05-24T00:32:42.255Z,81.03
2023-05-24T00:35:11.456Z,80.99
2023-05-24T00:37:40.195Z,81.04
2023-05-24T00:40:09.982Z,80.86
2023-05-24T00:42:38.207Z,80.82
2023-05-24T00:45:07.606Z,80.62
2023-05-24T00:47:37.286Z,80.44
2023-05-24T00:50:05.902Z,80.44
2023-05-24T00:52:36.554Z,80.56
2023-05-24T00:55:04.797Z,80.40
2023-05-24T00:57:32.509Z,80.59
2023-05-24T01:00:01.671Z,80.71
2023-05-24T01:02:29.475Z,80.14
2023-05-24T01:04:57.716Z,80.57
2023-05-24T01:07:33.672Z,80.67
2023-05-24T01:10:14.803Z,80.65
2023-05-24T01:12:54.523Z,80.45
2023-05-24T01:15:26.425Z,80.49
2023-05-24T01:18:02.663Z,80.41
2023-05-24T01:20:33.306Z,80.32
2023-05-24T01:23:19.860Z,80.48
2023-05-24T01:26:04.391Z,80.38
2023-05-24T01:28:35.802Z,80.61
2023-05-24T01:31:03.784Z,80.61
2023-05-24T01:33:32.103Z,80.74
2023-05-24T01:35:59.776Z,80.32
2023-05-24T01:38:27.477Z,80.50
2023-05-24T01:41:02.246Z,80.50
2023-05-24T01:43:39.157Z,80.58
2023-05-24T01:46:14.756Z,80.66
2023-05-24T01:48:55.710Z,80.57
2023-05-24T01:51:26.023Z,80.61
2023-05-24T01:53:56.076Z,80.59
2023-05-24T01:56:23.910Z,80.71
2023-05-24T01:59:00.147Z,80.70
2023-05-24T02:01:28.516Z,80.63
2023-05-24T02:03:56.683Z,80.45
2023-05-24T02:06:24.378Z,80.43
2023-05-24T02:08:52.663Z,80.26
2023-05-24T02:11:20.913Z,80.33
2023-05-24T02:13:48.578Z,80.08
2023-05-24T02:16:18.310Z,80.37
2023-05-24T02:18:46.865Z,80.48
2023-05-24T02:21:14.883Z,81.80
2023-05-24T02:23:43.065Z,82.26
2023-05-24T02:26:13.929Z,82.30
2023-05-24T02:28:41.824Z,82.55
2023-05-24T02:31:09.528Z,82.54
2023-05-24T02:33:38.702Z,82.69
2023-05-24T02:36:06.740Z,82.41
2023-05-24T02:38:34.394Z,82.86
2023-05-24T02:41:02.298Z,82.93
2023-05-24T02:43:29.985Z,82.70
2023-05-24T02:45:57.825Z,82.54
2023-05-24T02:48:25.467Z,82.48
2023-05-24T02:50:54.583Z,81.93
2023-05-24T02:53:22.518Z,81.95
2023-05-24T02:55:51.156Z,82.32
2023-05-24T02:58:19.144Z,82.15
2023-05-24T03:00:49.574Z,82.24
2023-05-24T03:03:19.731Z,81.99
2023-05-24T03:05:47.796Z,81.93
2023-05-24T03:08:16.901Z,82.03
2023-05-24T03:10:44.771Z,82.34
2023-05-24T03:13:13.936Z,81.99
2023-05-24T03:15:42.874Z,81.74
2023-05-24T03:18:10.879Z,81.71
2023-05-24T03:20:42.797Z,81.67
2023-05-24T03:23:11.881Z,81.98
2023-05-24T03:25:40.960Z,81.98
2023-05-24T03:28:09.098Z,82.15
2023-05-24T03:30:36.801Z,82.28
2023-05-24T03:33:04.690Z,82.12
2023-05-24T03:35:33.438Z,82.06
2023-05-24T03:38:01.271Z,81.97
2023-05-24T03:40:33.284Z,82.04
2023-05-24T03:43:18.463Z,81.97
2023-05-24T03:45:50.468Z,81.81
2023-05-24T03:48:20.795Z,81.64
2023-05-24T03:50:48.928Z,81.60
2023-05-24T03:53:16.694Z,80.15
2023-05-24T03:55:45.108Z,79.50
2023-05-24T03:58:13.784Z,79.36
2023-05-24T04:00:43.256Z,78.89
2023-05-24T04:03:12.223Z,78.83
2023-05-24T04:05:40.720Z,78.16
2023-05-24T04:08:08.578Z,79.58
2023-05-24T04:10:38.891Z,79.72
2023-05-24T04:13:07.102Z,79.49
2023-05-24T04:15:37.937Z,79.23
2023-05-24T04:18:07.474Z,79.07
2023-05-24T04:20:36.195Z,78.74
2023-05-24T04:23:03.876Z,78.66
2023-05-24T04:25:33.510Z,78.39
2023-05-24T04:28:02.442Z,78.06
2023-05-24T04:30:31.812Z,78.06
2023-05-24T04:33:00.080Z,77.53
2023-05-24T04:35:30.952Z,77.44
2023-05-24T04:37:59.710Z,77.04
2023-05-24T04:40:27.388Z,76.90
2023-05-24T04:42:55.248Z,76.93
2023-05-24T04:45:23.145Z,77.07
2023-05-24T04:47:51.140Z,75.60
2023-05-24T04:50:19.298Z,74.68
2023-05-24T04:52:48.605Z,73.93
2023-05-24T04:55:16.354Z,73.37
2023-05-24T04:57:44.514Z,72.67
2023-05-24T05:00:13.436Z,72.70
2023-05-24T05:02:41.302Z,73.00
2023-05-24T05:05:09.279Z,73.07
2023-05-24T05:07:38.839Z,72.97
2023-05-24T05:10:09.464Z,72.90
2023-05-24T05:12:37.235Z,72.23
2023-05-24T05:15:05.544Z,71.59
2023-05-24T05:17:33.260Z,71.53
2023-05-24T05:20:00.941Z,71.63
2023-05-24T05:22:30.686Z,71.79
2023-05-24T05:24:59.156Z,71.83
2023-05-24T05:27:28.274Z,71.26
2023-05-24T05:29:55.907Z,71.40
2023-05-24T05:32:23.695Z,71.30
2023-05-24T05:34:51.523Z,70.63
2023-05-24T05:37:19.163Z,70.29
2023-05-24T05:39:46.795Z,69.52
2023-05-24T05:42:14.582Z,69.65
2023-05-24T05:44:43.788Z,70.41
2023-05-24T05:47:11.431Z,70.90
2023-05-24T05:49:39.191Z,70.15
2023-05-24T05:52:07.020Z,69.98
2023-05-24T05:54:35.030Z,69.89
2023-05-24T05:57:02.680Z,70.51
2023-05-24T05:59:30.612Z,69.87
2023-05-24T06:01:59.590Z,68.89
2023-05-24T06:04:27.542Z,68.88
2023-05-24T06:06:55.220Z,68.02
2023-05-24T06:09:23.251Z,67.78
2023-05-24T06:11:51.339Z,68.43
2023-05-24T06:14:20.362Z,68.11
2023-05-24T06:16:48.431Z,67.78
2023-05-24T06:19:18.279Z,67.29
2023-05-24T06:21:48.034Z,68.05
2023-05-24T06:24:20.571Z,68.65
2023-05-24T06:26:48.547Z,68.26
2023-05-24T06:29:16.315Z,68.31
2023-05-24T06:31:44.177Z,68.78
2023-05-24T06:34:12.091Z,69.06
2023-05-24T06:36:42.961Z,68.80
2023-05-24T06:39:11.367Z,69.06
2023-05-24T06:41:39.465Z,68.36
2023-05-24T06:44:07.468Z,68.48
2023-05-24T06:46:35.801Z,67.74
2023-05-24T06:49:04.265Z,66.85
2023-05-24T06:51:33.734Z,67.14
2023-05-24T06:54:02.874Z,67.74
2023-05-24T06:56:30.760Z,67.23
2023-05-24T06:58:58.479Z,68.23
2023-05-24T07:01:26.349Z,67.07
2023-05-24T07:03:54.074Z,66.04
2023-05-24T07:06:23.599Z,66.65
2023-05-24T07:08:51.238Z,66.61
2023-05-24T07:11:20.825Z,66.41
2023-05-24T07:13:48.471Z,64.86
2023-05-24T07:16:16.443Z,64.80
2023-05-24T07:18:44.100Z,65.75
2023-05-24T07:21:11.887Z,65.94
2023-05-24T07:23:39.543Z,65.26
2023-05-24T07:26:07.600Z,65.15
2023-05-24T07:28:38.028Z,64.11
2023-05-24T07:31:08.160Z,62.22
2023-05-24T07:33:37.709Z,61.60
2023-05-24T07:36:07.040Z,62.68
2023-05-24T07:38:35.338Z,62.08
2023-05-24T07:41:04.710Z,62.06
2023-05-24T07:43:32.556Z,61.06
2023-05-24T07:46:01.621Z,60.98
2023-05-24T07:48:29.532Z,60.44
2023-05-24T07:50:57.184Z,60.32
2023-05-24T07:53:24.937Z,60.72
2023-05-24T07:55:52.558Z,61.80
2023-05-24T07:58:20.239Z,61.65
2023-05-24T08:00:47.911Z,62.08
2023-05-24T08:03:17.948Z,62.08
2023-05-24T08:05:45.862Z,61.48
2023-05-24T08:08:14.095Z,61.37
2023-05-24T08:10:41.848Z,60.25
2023-05-24T08:13:10.119Z,60.88
2023-05-24T08:15:37.871Z,59.65
2023-05-24T08:18:05.849Z,58.92
2023-05-24T08:20:36.643Z,59.18
2023-05-24T08:23:04.356Z,58.15
2023-05-24T08:25:32.922Z,57.82
2023-05-24T08:28:01.049Z,59.22
2023-05-24T08:30:29.188Z,60.52
2023-05-24T08:32:58.076Z,59.65
2023-05-24T08:35:26.018Z,59.10
2023-05-24T08:37:55.176Z,58.93
2023-05-24T08:40:24.154Z,59.93
2023-05-24T08:42:53.451Z,59.36
2023-05-24T08:45:23.263Z,59.80
2023-05-24T08:47:51.842Z,60.34
2023-05-24T08:50:20.385Z,60.65
2023-05-24T08:52:48.890Z,60.96
2023-05-24T08:55:18.483Z,60.81
2023-05-24T08:57:46.849Z,62.12
2023-05-24T09:00:15.731Z,61.44
2023-05-24T09:02:47.026Z,61.36
2023-05-24T09:05:16.883Z,61.85
2023-05-24T09:07:46.427Z,61.59
2023-05-24T09:10:14.164Z,60.81
2023-05-24T09:12:48.648Z,59.04
2023-05-24T09:15:16.270Z,59.39
2023-05-24T09:17:44.667Z,59.80
2023-05-24T09:20:13.833Z,59.64
2023-05-24T09:22:44.098Z,59.77
2023-05-24T09:25:15.046Z,58.86
2023-05-24T09:27:52.046Z,59.17
2023-05-24T09:30:21.027Z,58.17
2023-05-24T09:32:58.867Z,58.99
2023-05-24T09:35:28.083Z,58.47
2023-05-24T09:37:57.591Z,58.41
2023-05-24T09:40:25.775Z,57.50
2023-05-24T09:43:05.932Z,57.04
2023-05-24T09:45:33.833Z,57.35
2023-05-24T09:48:04.918Z,57.49
2023-05-24T09:50:33.067Z,56.94
2023-05-24T09:53:00.994Z,56.85
2023-05-24T09:55:28.777Z,56.70
2023-05-24T09:58:04.004Z,56.18
2023-05-24T10:00:36.368Z,56.35
2023-05-24T10:03:06.726Z,56.28
2023-05-24T10:05:35.888Z,55.29
2023-05-24T10:08:05.649Z,56.93
2023-05-24T10:10:35.090Z,55.40
2023-05-24T10:13:03.815Z,55.43
2023-05-24T10:15:33.116Z,55.65
2023-05-24T10:18:01.899Z,54.95
2023-05-24T10:20:30.081Z,55.42
2023-05-24T10:23:01.553Z,55.19
2023-05-24T10:25:30.664Z,54.84
2023-05-24T10:28:03.270Z,54.54
2023-05-24T10:30:38.676Z,54.17
2023-05-24T10:33:08.408Z,54.70
2023-05-24T10:35:38.231Z,55.92
2023-05-24T10:38:07.933Z,54.84
2023-05-24T10:40:36.041Z,55.86
2023-05-24T10:43:06.353Z,55.62
2023-05-24T10:45:38.284Z,55.06
2023-05-24T10:48:33.234Z,55.79
2023-05-24T10:51:02.255Z,56.80
2023-05-24T10:53:30.221Z,56.27
2023-05-24T10:55:59.728Z,55.53
2023-05-24T10:58:47.100Z,55.48
2023-05-24T11:01:26.994Z,56.20
2023-05-24T11:03:55.239Z,55.14
2023-05-24T11:06:47.290Z,53.62
2023-05-24T11:09:16.017Z,53.79
2023-05-24T11:11:48.814Z,53.23
2023-05-24T11:14:20.664Z,53.68
2023-05-24T11:16:51.321Z,54.27
2023-05-24T11:19:21.010Z,53.83
2023-05-24T11:21:50.414Z,54.71
2023-05-24T11:24:19.062Z,55.21
2023-05-24T11:26:47.536Z,53.63
2023-05-24T11:29:17.734Z,52.27
2023-05-24T11:31:50.799Z,52.55
2023-05-24T11:34:18.530Z,51.83
2023-05-24T11:36:47.526Z,51.09
2023-05-24T11:39:16.026Z,52.08
2023-05-24T11:41:44.020Z,52.04
2023-05-24T11:44:13.014Z,51.68
2023-05-24T11:46:41.459Z,54.44
2023-05-24T11:49:14.299Z,55.71
2023-05-24T11:51:42.396Z,54.06
2023-05-24T11:54:11.657Z,52.66
2023-05-24T11:56:40.051Z,52.40
2023-05-24T11:59:14.460Z,52.67
2023-05-24T12:01:42.477Z,52.42
2023-05-24T12:04:12.946Z,50.68
2023-05-24T12:06:42.265Z,50.45
2023-05-24T12:09:13.401Z,50.08
2023-05-24T12:11:43.550Z,51.06
2023-05-24T12:14:15.344Z,51.14
2023-05-24T12:16:43.723Z,49.89
2023-05-24T12:19:31.502Z,50.58
2023-05-24T12:22:02.035Z,51.70
2023-05-24T12:24:32.542Z,49.18
2023-05-24T12:27:03.116Z,48.09
2023-05-24T12:29:35.095Z,48.48
2023-05-24T12:32:03.390Z,47.70
2023-05-24T12:34:33.179Z,47.14
2023-05-24T12:37:01.209Z,48.53
2023-05-24T12:39:31.762Z,47.21
2023-05-24T12:42:01.638Z,47.10
2023-05-24T12:44:31.308Z,47.38
2023-05-24T12:47:00.054Z,46.87
2023-05-24T12:49:28.173Z,47.63
2023-05-24T12:51:57.821Z,48.35
2023-05-24T12:54:26.954Z,48.02
2023-05-24T12:56:57.348Z,47.09
2023-05-24T12:59:27.331Z,47.51
2023-05-24T13:01:55.174Z,48.14
2023-05-24T13:04:26.316Z,47.69
2023-05-24T13:06:54.393Z,48.82
2023-05-24T13:09:24.284Z,47.79
2023-05-24T13:11:52.679Z,45.39
2023-05-24T13:14:20.843Z,45.94
2023-05-24T13:16:48.782Z,45.39
2023-05-24T13:19:17.070Z,45.50
2023-05-24T13:21:45.039Z,45.11
2023-05-24T13:24:14.794Z,44.41
2023-05-24T13:26:43.865Z,47.24
2023-05-24T13:31:43.012Z,45.94
2023-05-24T13:34:11.454Z,46.97
2023-05-24T13:36:39.927Z,46.33
2023-05-24T13:41:41.279Z,47.61
2023-05-24T13:44:10.929Z,43.95
2023-05-24T13:46:39.399Z,46.53
2023-05-24T13:49:07.302Z,46.25
2023-05-24T13:51:34.971Z,45.16
2023-05-24T13:54:03.106Z,44.83
2023-05-24T13:56:33.286Z,47.48
2023-05-24T13:59:01.208Z,45.91
2023-05-24T14:01:30.533Z,46.25
2023-05-24T14:03:58.501Z,45.98
2023-05-24T14:06:26.525Z,45.20
2023-05-24T14:08:54.186Z,45.85
2023-05-24T14:11:22.599Z,46.54
2023-05-24T14:16:21.365Z,45.25
2023-05-24T14:18:51.646Z,43.90
2023-05-24T14:21:19.498Z,45.76
2023-05-24T14:23:47.223Z,46.87
2023-05-24T14:26:15.054Z,47.92
2023-05-24T14:28:42.713Z,45.57
2023-05-24T14:31:10.536Z,45.73
2023-05-24T14:33:38.892Z,45.58
2023-05-24T14:36:08.704Z,46.44
2023-05-24T14:38:36.610Z,49.25
2023-05-24T14:41:04.288Z,49.32
2023-05-24T14:43:32.034Z,47.07
2023-05-24T14:45:59.731Z,48.38
2023-05-24T14:48:27.516Z,47.57
2023-05-24T14:50:55.183Z,47.68
2023-05-24T14:53:24.261Z,47.80
2023-05-24T14:55:54.248Z,50.44
2023-05-24T14:58:22.136Z,49.68
2023-05-24T15:00:50.051Z,49.05
2023-05-24T15:03:18.705Z,48.88
2023-05-24T15:05:46.554Z,48.73
2023-05-24T15:08:14.178Z,50.71
2023-05-24T15:10:45.177Z,50.48
2023-05-24T15:13:13.485Z,50.43
2023-05-24T15:15:41.989Z,50.58
2023-05-24T15:18:10.005Z,51.83
2023-05-24T15:20:38.101Z,52.60
2023-05-24T15:23:06.345Z,51.17
2023-05-24T15:25:33.985Z,51.84
2023-05-24T15:28:03.110Z,51.91
2023-05-24T15:30:32.049Z,53.20
2023-05-24T15:32:59.861Z,52.85
2023-05-24T15:35:27.638Z,53.33
2023-05-24T15:37:55.304Z,53.08
2023-05-24T15:40:24.486Z,52.33
2023-05-24T15:42:53.452Z,53.93
2023-05-24T15:45:22.441Z,53.77
2023-05-24T15:47:50.175Z,54.07
2023-05-24T15:50:23.655Z,54.58
2023-05-24T15:52:56.658Z,55.99
2023-05-24T15:55:24.308Z,57.87
2023-05-24T15:57:51.986Z,58.98
2023-05-24T16:00:20.317Z,58.23
2023-05-24T16:02:49.497Z,59.50
2023-05-24T16:05:19.790Z,60.48
2023-05-24T16:07:48.642Z,59.27
2023-05-24T16:10:16.376Z,58.30
2023-05-24T16:12:44.147Z,58.12
2023-05-24T16:15:12.520Z,55.67
2023-05-24T16:17:40.245Z,55.06
2023-05-24T16:20:10.171Z,53.69
2023-05-24T16:22:39.689Z,52.75
2023-05-24T16:25:08.037Z,52.92
2023-05-24T16:27:36.014Z,54.02
2023-05-24T16:30:03.677Z,54.49
2023-05-24T16:32:31.561Z,54.84
2023-05-24T16:34:59.287Z,56.50
2023-05-24T16:37:28.484Z,55.73
2023-05-24T16:39:56.684Z,56.71
2023-05-24T16:42:24.471Z,57.50
2023-05-24T16:44:52.179Z,57.36
2023-05-24T16:47:20.039Z,56.07
2023-05-24T16:49:47.759Z,56.51
2023-05-24T16:52:15.679Z,56.41
2023-05-24T16:54:44.711Z,56.92
2023-05-24T16:57:12.582Z,56.33
2023-05-24T16:59:42.221Z,57.49
2023-05-24T17:02:09.864Z,58.37
2023-05-24T17:04:37.694Z,57.86
2023-05-24T17:07:05.625Z,57.78
2023-05-24T17:09:33.409Z,58.29
2023-05-24T17:12:03.165Z,58.90
2023-05-24T17:14:31.479Z,59.63
2023-05-24T17:16:59.131Z,59.30
2023-05-24T17:19:27.053Z,59.09
2023-05-24T17:21:55.120Z,59.43
2023-05-24T17:24:25.306Z,59.32
2023-05-24T17:26:53.576Z,59.65
2023-05-24T17:29:23.628Z,58.95
2023-05-24T17:31:51.666Z,58.71
2023-05-24T17:34:20.229Z,59.46
2023-05-24T17:36:48.304Z,60.03
2023-05-24T17:39:17.425Z,59.78
2023-05-24T17:41:45.401Z,59.64
2023-05-24T17:44:13.560Z,59.67
2023-05-24T17:46:43.078Z,59.52
2023-05-24T17:49:12.613Z,59.29
2023-05-24T17:51:40.611Z,59.69
2023-05-24T17:54:08.664Z,60.51
2023-05-24T17:56:36.571Z,60.63
2023-05-24T17:59:04.566Z,60.51
2023-05-24T18:01:32.774Z,59.85
2023-05-24T18:04:02.721Z,60.58
2023-05-24T18:06:30.980Z,60.72
2023-05-24T18:08:59.136Z,60.71
2023-05-24T18:11:28.502Z,61.33
2023-05-24T18:13:57.156Z,62.29
2023-05-24T18:16:25.376Z,61.65
2023-05-24T18:18:54.453Z,61.42
2023-05-24T18:21:24.382Z,61.35
2023-05-24T18:23:52.393Z,61.27
2023-05-24T18:26:20.427Z,61.69
2023-05-24T18:28:48.267Z,61.63
2023-05-24T18:31:16.170Z,61.72
2023-05-24T18:33:44.352Z,61.63
2023-05-24T18:36:12.756Z,61.98
2023-05-24T18:38:42.649Z,62.72
2023-05-24T18:41:11.916Z,62.22
2023-05-24T18:43:42.994Z,62.28
2023-05-24T18:46:13.409Z,62.22
2023-05-24T18:48:41.688Z,63.06
2023-05-24T18:51:09.658Z,62.80
2023-05-24T18:53:37.491Z,62.85
2023-05-24T18:56:07.316Z,63.05
2023-05-24T18:58:35.181Z,62.99
2023-05-24T19:01:03.242Z,63.25
2023-05-24T19:03:31.322Z,63.94
2023-05-24T19:05:59.330Z,63.46
2023-05-24T19:08:27.273Z,63.28
2023-05-24T19:10:55.408Z,63.69
2023-05-24T19:13:25.890Z,64.09
2023-05-24T19:15:53.920Z,63.98
2023-05-24T19:18:21.746Z,63.86
2023-05-24T19:20:49.825Z,63.98
2023-05-24T19:23:17.787Z,63.93
2023-05-24T19:25:50.070Z,64.48
2023-05-24T19:28:18.233Z,64.94
2023-05-24T19:30:47.883Z,64.89
2023-05-24T19:33:15.710Z,64.90
2023-05-24T19:35:46.576Z,64.82
2023-05-24T19:38:17.873Z,65.17
2023-05-24T19:40:51.700Z,65.37
2023-05-24T19:43:24.587Z,65.12
2023-05-24T19:46:04.336Z,65.59
2023-05-24T19:48:32.407Z,65.69
2023-05-24T19:51:00.321Z,65.58
2023-05-24T19:53:29.445Z,64.95
2023-05-24T19:56:03.421Z,65.37
2023-05-24T19:58:31.461Z,65.28
2023-05-24T20:01:02.406Z,65.76
2023-05-24T20:03:35.108Z,66.70
2023-05-24T20:06:05.209Z,66.67
2023-05-24T20:08:33.681Z,66.82
2023-05-24T20:11:12.349Z,66.91
2023-05-24T20:13:47.276Z,66.89
2023-05-24T20:16:19.290Z,66.36
2023-05-24T20:18:47.567Z,66.57
2023-05-24T20:21:22.630Z,67.04
2023-05-24T20:23:57.821Z,67.33
2023-05-24T20:26:26.925Z,67.70
2023-05-24T20:28:55.043Z,67.92
2023-05-24T20:31:24.513Z,68.07
2023-05-24T20:33:52.975Z,67.99
2023-05-24T20:36:20.925Z,68.10
2023-05-24T20:38:50.220Z,67.79
2023-05-24T20:41:18.384Z,68.00
2023-05-24T20:43:46.666Z,68.14
2023-05-24T20:46:14.783Z,68.16
2023-05-24T20:48:44.984Z,68.31
2023-05-24T20:51:12.853Z,69.55
2023-05-24T20:53:42.953Z,69.91
2023-05-24T20:56:21.702Z,69.71
2023-05-24T20:58:52.712Z,70.10
2023-05-24T21:01:20.864Z,70.75
2023-05-24T21:03:49.938Z,70.80
2023-05-24T21:06:20.758Z,70.84
2023-05-24T21:08:49.107Z,71.06
2023-05-24T21:11:16.973Z,71.04
2023-05-24T21:13:44.630Z,71.09
2023-05-24T21:16:12.281Z,71.40
2023-05-24T21:18:39.936Z,71.50
2023-05-24T21:21:09.444Z,71.47
2023-05-24T21:23:37.078Z,71.46
2023-05-24T21:26:05.056Z,71.39
2023-05-24T21:28:32.869Z,71.37
2023-05-24T21:31:00.563Z,71.16
2023-05-24T21:33:28.396Z,70.78
2023-05-24T21:35:56.091Z,70.84
2023-05-24T21:38:25.491Z,70.60
2023-05-24T21:40:53.527Z,70.62
2023-05-24T21:43:21.595Z,70.83
2023-05-24T21:45:49.231Z,71.09
2023-05-24T21:48:16.936Z,70.68
2023-05-24T21:50:44.744Z,70.25
2023-05-24T21:53:12.609Z,69.89
2023-05-24T21:55:41.690Z,69.69
2023-05-24T21:58:09.820Z,69.09
2023-05-24T22:00:37.444Z,67.79
2023-05-24T22:03:05.532Z,67.28
2023-05-24T22:05:33.281Z,66.97
2023-05-24T22:08:01.068Z,67.26
2023-05-24T22:10:28.723Z,66.79
2023-05-24T22:12:57.886Z,66.35
2023-05-24T22:15:26.444Z,66.39
2023-05-24T22:17:58.236Z,66.33
2023-05-24T22:20:27.715Z,66.60
2023-05-24T22:22:55.565Z,66.89
2023-05-24T22:25:23.390Z,66.92
2023-05-24T22:27:51.757Z,67.07
2023-05-24T22:30:21.306Z,67.41
2023-05-24T22:32:49.399Z,68.07
2023-05-24T22:35:20.341Z,68.12
2023-05-24T22:37:48.154Z,68.01
2023-05-24T22:40:16.515Z,67.58
2023-05-24T22:42:46.624Z,67.26
2023-05-24T22:45:18.640Z,67.19
2023-05-24T22:47:49.217Z,67.15
2023-05-24T22:50:17.567Z,67.21
2023-05-24T22:52:49.024Z,67.32
2023-05-24T22:55:19.631Z,67.46
2023-05-24T22:57:47.674Z,67.58
2023-05-24T23:00:16.312Z,66.90
2023-05-24T23:02:47.988Z,66.98
2023-05-24T23:05:16.266Z,67.13
2023-05-24T23:07:44.228Z,67.45
2023-05-24T23:10:12.452Z,67.83
2023-05-24T23:12:43.093Z,67.72
2023-05-24T23:15:16.945Z,67.91
2023-05-24T23:17:45.081Z,67.80
2023-05-24T23:20:18.116Z,67.56
2023-05-24T23:22:47.286Z,68.04
2023-05-24T23:25:15.293Z,67.74
2023-05-24T23:27:43.403Z,67.18
2023-05-24T23:30:11.726Z,67.10
2023-05-24T23:32:39.640Z,67.22
2023-05-24T23:35:07.883Z,67.12
2023-05-24T23:37:37.403Z,67.59
2023-05-24T23:40:06.648Z,67.69
2023-05-24T23:42:34.649Z,67.76
2023-05-24T23:45:02.738Z,67.65
2023-05-24T23:47:30.825Z,67.43
2023-05-24T23:49:58.937Z,67.41
2023-05-24T23:52:27.095Z,66.85
2023-05-24T23:54:56.971Z,66.21
2023-05-24T23:57:25.409Z,66.12
2023-05-24T23:59:55.619Z,65.92
